createdAt,value
2022-08-17T00:01:24.185Z,44.61
2022-08-17T00:03:57.478Z,44.25
2022-08-17T00:06:28.312Z,44.50
2022-08-17T00:08:58.691Z,44.37
2022-08-17T00:11:29.621Z,44.31
2022-08-17T00:14:00.959Z,44.02
2022-08-17T00:16:51.001Z,43.95
2022-08-17T00:19:24.436Z,43.58
2022-08-17T00:22:35.265Z,44.07
2022-08-17T00:30:18.732Z,44.74
2022-08-17T00:33:15.777Z,44.74
2022-08-17T00:35:33.930Z,44.77
2022-08-17T00:38:00.322Z,44.58
2022-08-17T00:40:26.821Z,44.70
2022-08-17T00:43:12.226Z,44.82
2022-08-17T00:45:39.257Z,45.00
2022-08-17T00:48:07.081Z,45.35
2022-08-17T00:50:59.383Z,45.04
2022-08-17T00:53:30.219Z,44.88
2022-08-17T01:01:02.018Z,44.72
2022-08-17T01:03:29.402Z,44.63
2022-08-17T01:06:00.188Z,44.39
2022-08-17T01:08:29.482Z,44.63
2022-08-17T01:11:02.200Z,45.10
2022-08-17T01:13:51.622Z,45.57
2022-08-17T01:16:24.801Z,45.91
2022-08-17T01:18:55.937Z,45.91
2022-08-17T01:21:34.359Z,45.90
2022-08-17T01:24:03.877Z,46.16
2022-08-17T01:26:33.863Z,46.35
2022-08-17T01:29:04.275Z,45.94
2022-08-17T01:31:36.946Z,46.32
2022-08-17T01:34:09.149Z,46.06
2022-08-17T01:36:38.124Z,46.76
2022-08-17T01:39:10.486Z,47.05
2022-08-17T01:41:40.983Z,47.33
2022-08-17T01:44:09.417Z,47.05
2022-08-17T01:46:38.588Z,46.94
2022-08-17T01:52:10.652Z,46.66
2022-08-17T01:54:44.709Z,46.47
2022-08-17T02:00:59.735Z,45.91
2022-08-17T02:03:26.426Z,45.89
2022-08-17T02:05:54.290Z,46.45
2022-08-17T02:08:37.105Z,46.81
2022-08-17T02:11:11.866Z,46.94
2022-08-17T02:13:40.223Z,47.20
2022-08-17T02:16:10.039Z,46.99
2022-08-17T02:18:38.466Z,47.49
2022-08-17T02:26:08.175Z,48.28
2022-08-17T02:28:34.731Z,48.40
2022-08-17T02:31:05.400Z,47.93
2022-08-17T02:33:37.278Z,48.65
2022-08-17T02:36:11.409Z,48.62
2022-08-17T02:38:38.685Z,47.81
2022-08-17T02:41:05.353Z,47.49
2022-08-17T02:49:54.323Z,46.77
2022-08-17T02:52:42.473Z,47.26
2022-08-17T02:55:12.422Z,47.21
2022-08-17T02:57:38.825Z,47.33
2022-08-17T03:00:08.930Z,47.55
2022-08-17T03:02:38.136Z,47.49
2022-08-17T03:05:06.408Z,47.74
2022-08-17T03:10:11.551Z,47.49
2022-08-17T03:12:40.946Z,47.75
2022-08-17T03:15:12.207Z,47.58
2022-08-17T03:17:38.541Z,47.09
2022-08-17T03:20:06.581Z,47.02
2022-08-17T03:22:53.103Z,46.85
2022-08-17T03:25:23.371Z,46.77
2022-08-17T03:32:55.135Z,46.62
2022-08-17T03:35:25.570Z,45.94
2022-08-17T03:38:00.541Z,45.36
2022-08-17T03:40:34.415Z,45.08
2022-08-17T03:43:15.207Z,45.32
2022-08-17T03:49:44.167Z,45.80
2022-08-17T04:01:17.144Z,46.27
2022-08-17T04:03:43.867Z,46.15
2022-08-17T04:06:44.559Z,45.74
2022-08-17T04:09:11.233Z,45.72
2022-08-17T04:11:37.978Z,46.06
2022-08-17T04:14:05.105Z,45.83
2022-08-17T04:16:33.433Z,45.83
2022-08-17T04:19:00.110Z,46.07
2022-08-17T04:26:54.181Z,45.37
2022-08-17T04:29:18.103Z,45.94
2022-08-17T04:31:46.426Z,46.01
2022-08-17T04:34:14.164Z,45.84
2022-08-17T04:36:42.256Z,46.15
2022-08-17T04:39:19.425Z,46.74
2022-08-17T04:42:05.750Z,46.13
2022-08-17T04:44:37.535Z,46.25
2022-08-17T04:47:07.134Z,45.95
2022-08-17T04:49:38.424Z,45.32
2022-08-17T04:52:06.128Z,45.38
2022-08-17T04:54:34.286Z,45.00
2022-08-17T05:04:45.541Z,45.76
2022-08-17T05:07:13.796Z,45.78
2022-08-17T05:09:41.488Z,45.64
2022-08-17T05:12:10.012Z,46.62
2022-08-17T05:14:39.868Z,46.38
2022-08-17T05:17:11.192Z,46.92
2022-08-17T05:19:39.347Z,47.49
2022-08-17T05:22:08.740Z,47.88
2022-08-17T05:28:18.403Z,47.94
2022-08-17T05:30:49.260Z,47.46
2022-08-17T05:33:19.980Z,47.46
2022-08-17T05:35:50.503Z,47.38
2022-08-17T05:38:22.238Z,47.73
2022-08-17T05:40:50.178Z,47.80
2022-08-17T05:43:21.115Z,46.90
2022-08-17T05:45:56.470Z,47.06
2022-08-17T05:48:39.579Z,47.44
2022-08-17T05:51:32.233Z,46.99
2022-08-17T05:54:12.626Z,46.93
2022-08-17T05:56:57.978Z,46.74
2022-08-17T05:59:36.082Z,47.45
2022-08-17T06:17:23.184Z,47.51
2022-08-17T06:19:55.753Z,47.31
2022-08-17T06:45:15.212Z,46.85
2022-08-17T06:47:48.916Z,47.21
2022-08-17T06:50:21.274Z,46.63
2022-08-17T06:52:56.230Z,46.96
2022-08-17T06:55:27.624Z,46.59
2022-08-17T06:57:59.830Z,46.88
2022-08-17T07:00:33.565Z,46.69
2022-08-17T07:03:07.368Z,46.49
2022-08-17T07:05:43.302Z,46.32
2022-08-17T07:08:18.597Z,46.08
2022-08-17T07:10:52.075Z,46.59
2022-08-17T07:13:35.222Z,46.18
2022-08-17T07:16:16.661Z,45.59
2022-08-17T07:18:45.136Z,45.88
2022-08-17T07:21:27.461Z,45.80
2022-08-17T07:24:29.305Z,45.35
2022-08-17T07:27:20.501Z,45.07
2022-08-17T07:29:53.620Z,45.30
2022-08-17T07:32:26.341Z,45.25
2022-08-17T07:35:03.008Z,45.75
2022-08-17T07:37:33.269Z,45.34
2022-08-17T07:40:15.797Z,45.26
2022-08-17T07:42:46.528Z,44.82
2022-08-17T07:45:29.974Z,44.67
2022-08-17T07:48:16.848Z,44.09
2022-08-17T07:59:10.585Z,45.83
2022-08-17T08:01:39.364Z,45.28
2022-08-17T08:04:58.915Z,46.03
2022-08-17T08:07:26.354Z,45.96
2022-08-17T08:17:44.502Z,45.61
2022-08-17T08:20:52.348Z,45.31
2022-08-17T08:26:42.630Z,44.90
2022-08-17T08:29:17.793Z,44.51
2022-08-17T08:31:58.218Z,44.04
2022-08-17T08:34:53.449Z,44.32
2022-08-17T08:41:25.517Z,44.60
2022-08-17T09:10:26.294Z,41.75
2022-08-17T09:13:09.903Z,41.49
2022-08-17T09:15:41.671Z,42.20
2022-08-17T09:19:03.386Z,42.04
2022-08-17T09:24:56.409Z,41.86
2022-08-17T09:27:27.406Z,40.86
2022-08-17T09:37:33.306Z,40.25
2022-08-17T09:47:25.660Z,40.27
2022-08-17T09:49:57.895Z,39.93
2022-08-17T09:52:28.416Z,40.21
2022-08-17T09:54:56.970Z,40.31
2022-08-17T09:57:37.630Z,40.68
2022-08-17T10:05:45.612Z,40.14
2022-08-17T10:08:23.678Z,40.00
2022-08-17T10:11:05.174Z,40.89
2022-08-17T10:13:40.494Z,40.58
2022-08-17T10:16:28.621Z,40.59
2022-08-17T10:31:10.507Z,39.85
2022-08-17T10:34:01.921Z,39.37
2022-08-17T10:36:43.213Z,38.63
2022-08-17T10:39:21.638Z,39.39
2022-08-17T10:41:54.138Z,38.74
2022-08-17T10:44:37.175Z,38.94
2022-08-17T10:47:12.762Z,38.54
2022-08-17T10:49:45.640Z,38.79
2022-08-17T10:52:50.106Z,38.56
2022-08-17T11:06:12.634Z,37.95
2022-08-17T11:09:07.704Z,37.72
2022-08-17T11:11:52.654Z,37.55
2022-08-17T11:14:42.954Z,38.33
2022-08-17T11:17:23.377Z,38.96
2022-08-17T11:20:13.239Z,38.88
2022-08-17T11:23:07.490Z,39.23
2022-08-17T11:25:39.534Z,38.75
2022-08-17T11:28:14.414Z,38.68
2022-08-17T11:30:48.816Z,39.02
2022-08-17T11:33:52.769Z,38.15
2022-08-17T11:36:45.356Z,38.65
2022-08-17T11:39:33.698Z,38.64
2022-08-17T11:42:06.672Z,38.08
2022-08-17T11:44:47.922Z,37.89
2022-08-17T11:47:39.564Z,38.18
2022-08-17T11:50:52.052Z,38.66
2022-08-17T11:54:31.636Z,38.08
2022-08-17T11:56:59.971Z,36.96
2022-08-17T12:03:26.484Z,36.39
2022-08-17T12:06:03.818Z,35.94
2022-08-17T12:08:33.890Z,35.86
2022-08-17T12:11:08.067Z,35.57
2022-08-17T12:13:45.256Z,36.17
2022-08-17T12:16:16.426Z,35.95
2022-08-17T12:29:48.166Z,36.35
2022-08-17T12:32:20.017Z,36.08
2022-08-17T12:34:50.284Z,35.50
2022-08-17T12:40:54.715Z,35.62
2022-08-17T12:43:31.138Z,36.06
2022-08-17T12:46:13.321Z,35.51
2022-08-17T12:58:55.552Z,35.02
2022-08-17T13:01:27.264Z,34.45
2022-08-17T13:03:59.775Z,34.15
2022-08-17T13:06:30.177Z,33.38
2022-08-17T13:08:58.043Z,34.06
2022-08-17T13:11:26.357Z,33.85
2022-08-17T13:13:56.364Z,33.17
2022-08-17T13:16:28.071Z,33.99
2022-08-17T13:19:06.797Z,34.35
2022-08-17T13:21:36.486Z,33.97
2022-08-17T13:24:38.006Z,33.20
2022-08-17T13:31:23.540Z,32.89
2022-08-17T13:34:13.589Z,33.03
2022-08-17T13:36:43.715Z,33.32
2022-08-17T13:39:18.786Z,33.08
2022-08-17T13:41:48.203Z,33.12
2022-08-17T13:44:33.155Z,32.80
2022-08-17T13:47:02.305Z,33.07
2022-08-17T13:49:41.533Z,32.95
2022-08-17T13:52:37.959Z,32.83
2022-08-17T13:55:16.594Z,31.66
2022-08-17T13:57:47.500Z,32.64
2022-08-17T14:00:19.894Z,32.37
2022-08-17T14:02:47.619Z,31.53
2022-08-17T14:05:17.090Z,31.76
2022-08-17T14:07:44.894Z,31.09
2022-08-17T14:10:17.246Z,31.73
2022-08-17T14:12:46.185Z,32.32
2022-08-17T14:15:15.978Z,31.26
2022-08-17T14:17:43.831Z,31.45
2022-08-17T14:20:13.569Z,30.75
2022-08-17T14:22:46.323Z,31.10
2022-08-17T14:29:30.156Z,30.30
2022-08-17T14:36:00.095Z,28.11
2022-08-17T14:38:29.138Z,28.27
2022-08-17T14:45:32.211Z,27.77
2022-08-17T14:48:01.971Z,26.48
2022-08-17T14:54:34.326Z,26.73
2022-08-17T14:57:23.052Z,26.56
2022-08-17T14:59:54.772Z,27.02
2022-08-17T15:02:30.202Z,26.95
2022-08-17T15:09:21.336Z,26.83
2022-08-17T15:11:51.466Z,26.64
2022-08-17T15:14:19.151Z,25.85
2022-08-17T15:16:46.840Z,26.38
2022-08-17T15:19:14.560Z,26.83
2022-08-17T15:21:42.448Z,27.45
2022-08-17T15:24:10.455Z,27.74
2022-08-17T15:26:39.105Z,28.11
2022-08-17T15:29:10.413Z,28.56
2022-08-17T15:31:38.418Z,25.50
2022-08-17T15:34:08.017Z,27.12
2022-08-17T15:36:37.041Z,27.45
2022-08-17T15:39:06.573Z,27.14
2022-08-17T15:41:34.547Z,26.61
2022-08-17T15:44:02.872Z,27.62
2022-08-17T15:46:31.955Z,28.17
2022-08-17T15:52:59.405Z,28.72
2022-08-17T15:55:29.459Z,28.72
2022-08-17T16:17:15.584Z,30.99
2022-08-17T16:20:02.578Z,31.05
2022-08-17T16:22:33.585Z,31.43
2022-08-17T16:25:03.704Z,31.43
2022-08-17T16:27:31.503Z,32.08
2022-08-17T16:29:59.258Z,32.23
2022-08-17T16:32:31.671Z,32.38
2022-08-17T16:58:25.561Z,33.00
2022-08-17T17:00:58.177Z,33.20
2022-08-17T17:03:28.618Z,32.80
2022-08-17T17:17:39.810Z,33.37
2022-08-17T17:20:10.921Z,33.34
2022-08-17T17:22:45.362Z,33.27
2022-08-17T17:25:20.936Z,33.84
2022-08-17T17:39:41.406Z,33.98
2022-08-17T17:42:14.450Z,34.17
2022-08-17T17:44:50.294Z,34.49
2022-08-17T17:47:18.050Z,34.48
2022-08-17T17:49:48.488Z,35.11
2022-08-17T17:52:24.246Z,34.71
2022-08-17T17:55:04.578Z,35.10
2022-08-17T17:57:45.359Z,35.07
2022-08-17T18:00:16.970Z,35.20
2022-08-17T18:03:01.845Z,35.32
2022-08-17T18:05:52.784Z,35.19
2022-08-17T18:08:43.008Z,35.44
2022-08-17T18:11:24.465Z,35.59
2022-08-17T18:14:10.647Z,35.60
2022-08-17T18:16:42.748Z,35.67
2022-08-17T18:19:13.940Z,35.62
2022-08-17T18:21:44.639Z,36.03
2022-08-17T18:24:14.205Z,35.80
2022-08-17T18:26:55.815Z,36.30
2022-08-17T18:29:31.524Z,36.27
2022-08-17T18:32:24.258Z,36.28
2022-08-17T18:34:54.566Z,36.49
2022-08-17T18:37:40.324Z,36.39
2022-08-17T18:40:38.801Z,36.49
2022-08-17T18:43:12.066Z,36.57
2022-08-17T18:45:44.164Z,36.61
2022-08-17T18:48:33.598Z,36.59
2022-08-17T18:51:21.084Z,37.11
2022-08-17T18:54:13.544Z,37.21
2022-08-17T18:56:43.740Z,37.12
2022-08-17T18:59:23.450Z,37.23
2022-08-17T19:02:16.053Z,37.45
2022-08-17T19:05:00.165Z,37.44
2022-08-17T19:07:31.451Z,37.42
2022-08-17T19:19:17.787Z,37.79
2022-08-17T19:21:53.225Z,37.94
2022-08-17T19:24:23.208Z,37.87
2022-08-17T19:26:57.561Z,38.09
2022-08-17T19:29:30.979Z,38.01
2022-08-17T19:31:59.460Z,37.91
2022-08-17T19:34:33.283Z,38.08
2022-08-17T19:37:08.879Z,37.74
2022-08-17T19:39:46.343Z,37.43
2022-08-17T19:42:25.621Z,37.60
2022-08-17T19:45:01.970Z,37.79
2022-08-17T19:47:56.479Z,38.18
2022-08-17T20:01:46.105Z,38.54
2022-08-17T20:04:20.636Z,38.60
2022-08-17T20:06:50.310Z,38.67
2022-08-17T20:09:26.015Z,38.41
2022-08-17T20:12:07.413Z,38.36
2022-08-17T20:14:41.232Z,38.70
2022-08-17T20:17:24.822Z,38.73
2022-08-17T20:20:02.518Z,37.95
2022-08-17T20:22:36.913Z,38.10
2022-08-17T20:32:55.365Z,38.52
2022-08-17T20:35:26.896Z,38.85
2022-08-17T20:42:06.029Z,38.95
2022-08-17T20:44:34.689Z,38.99
2022-08-17T20:47:07.981Z,39.07
2022-08-17T20:49:50.294Z,39.04
2022-08-17T20:52:44.614Z,38.94
2022-08-17T20:55:53.299Z,39.08
2022-08-17T20:58:48.632Z,38.98
2022-08-17T21:01:24.219Z,38.93
2022-08-17T21:03:54.167Z,38.62
2022-08-17T21:06:25.751Z,38.29
2022-08-17T21:08:58.596Z,38.51
2022-08-17T21:12:04.423Z,38.74
2022-08-17T21:14:39.565Z,38.72
2022-08-17T21:17:22.169Z,38.17
2022-08-17T21:23:56.911Z,38.39
2022-08-17T21:26:31.510Z,38.36
2022-08-17T21:29:32.315Z,38.18
2022-08-17T21:37:09.205Z,39.05
2022-08-17T21:39:44.152Z,38.49
2022-08-17T21:42:13.556Z,38.32
2022-08-17T21:44:48.368Z,38.58
2022-08-17T21:47:24.769Z,38.73
2022-08-17T21:49:52.974Z,38.30
2022-08-17T21:52:23.588Z,38.59
2022-08-17T21:54:55.925Z,38.45
2022-08-17T21:57:27.373Z,37.51
2022-08-17T21:59:57.849Z,36.94
2022-08-17T22:02:28.202Z,37.19
2022-08-17T22:05:01.502Z,36.55
2022-08-17T22:07:39.121Z,36.62
2022-08-17T22:17:34.356Z,38.44
2022-08-17T22:20:09.646Z,39.12
2022-08-17T22:23:00.885Z,40.91
2022-08-17T22:25:29.538Z,43.54
2022-08-17T22:28:00.247Z,45.28
2022-08-17T22:34:16.830Z,45.02
2022-08-17T22:36:44.678Z,46.29
2022-08-17T22:39:40.587Z,47.07
2022-08-17T22:42:15.598Z,49.48
2022-08-17T22:44:49.382Z,52.24
2022-08-17T22:47:32.319Z,53.83
2022-08-17T22:50:01.829Z,53.66
2022-08-17T22:53:25.177Z,55.69
2022-08-17T22:56:14.112Z,57.87
2022-08-17T22:59:10.642Z,59.03
2022-08-17T23:01:40.530Z,57.62
2022-08-17T23:04:10.713Z,58.17
2022-08-17T23:06:42.333Z,60.79
2022-08-17T23:09:10.115Z,59.91
2022-08-17T23:15:32.685Z,61.10
2022-08-17T23:18:04.609Z,59.37
2022-08-17T23:20:34.874Z,59.62
2022-08-17T23:23:03.405Z,61.06
2022-08-17T23:25:33.589Z,60.74
2022-08-17T23:35:41.011Z,61.61
2022-08-17T23:38:10.029Z,61.76
2022-08-17T23:40:39.650Z,61.34
2022-08-17T23:43:23.693Z,60.91
2022-08-17T23:45:53.599Z,60.55
2022-08-17T23:48:35.844Z,59.85
2022-08-17T23:51:09.524Z,60.53
2022-08-17T23:57:33.941Z,61.28
